createdAt,value
2018-06-23T00:00:51.548Z,13.50
2018-06-23T00:03:20.904Z,11.90
2018-06-23T00:05:48.271Z,11.60
2018-06-23T00:08:15.620Z,12.00
2018-06-23T00:10:43.020Z,11.90
2018-06-23T00:13:10.569Z,11.40
2018-06-23T00:15:39.479Z,10.80
2018-06-23T00:18:06.807Z,11.60
2018-06-23T00:20:34.098Z,11.60
2018-06-23T00:23:01.711Z,11.50
2018-06-23T00:25:35.578Z,11.50
2018-06-23T00:28:02.904Z,11.40
2018-06-23T00:30:30.177Z,10.80
2018-06-23T00:32:57.459Z,11.30
2018-06-23T00:35:26.017Z,11.20
2018-06-23T00:37:53.385Z,10.00
2018-06-23T00:40:20.957Z,10.60
2018-06-23T00:42:48.240Z,11.00
2018-06-23T00:45:15.755Z,12.60
2018-06-23T00:47:43.111Z,9.90
2018-06-23T00:50:10.435Z,12.50
2018-06-23T00:52:37.835Z,10.80
2018-06-23T00:55:05.820Z,10.70
2018-06-23T00:57:34.085Z,10.40
2018-06-23T01:02:28.983Z,10.60
2018-06-23T01:04:57.449Z,11.30
2018-06-23T01:07:24.947Z,10.50
2018-06-23T01:09:52.267Z,8.50
2018-06-23T01:12:19.803Z,10.40
2018-06-23T01:14:47.191Z,10.40
2018-06-23T01:17:14.772Z,9.50
2018-06-23T01:19:42.160Z,10.30
2018-06-23T01:22:09.678Z,9.50
2018-06-23T01:24:36.956Z,9.10
2018-06-23T01:27:04.716Z,9.50
2018-06-23T01:29:32.004Z,10.10
2018-06-23T01:31:59.301Z,10.00
2018-06-23T01:34:27.272Z,9.10
2018-06-23T01:36:54.524Z,10.00
2018-06-23T01:39:21.983Z,9.20
2018-06-23T01:44:16.474Z,9.90
2018-06-23T01:46:43.808Z,8.40
2018-06-23T01:49:11.073Z,8.40
2018-06-23T01:51:38.398Z,9.80
2018-06-23T01:54:05.896Z,9.50
2018-06-23T01:56:33.463Z,9.20
2018-06-23T01:59:01.298Z,9.20
2018-06-23T02:01:28.680Z,9.60
2018-06-23T02:03:55.946Z,9.60
2018-06-23T02:06:23.212Z,10.50
2018-06-23T02:08:50.535Z,9.50
2018-06-23T02:11:17.869Z,8.30
2018-06-23T02:13:45.142Z,9.40
2018-06-23T02:16:18.025Z,9.30
2018-06-23T02:18:50.987Z,8.80
2018-06-23T02:21:23.915Z,8.00
2018-06-23T02:23:56.987Z,9.50
2018-06-23T02:29:03.213Z,9.10
2018-06-23T02:31:36.210Z,9.10
2018-06-23T02:34:09.110Z,8.10
2018-06-23T02:36:36.435Z,9.10
2018-06-23T02:39:06.508Z,9.00
2018-06-23T02:41:33.772Z,9.60
2018-06-23T02:44:02.049Z,10.10
2018-06-23T02:46:29.421Z,8.80
2018-06-23T02:48:56.735Z,8.80
2018-06-23T02:51:24.444Z,7.40
2018-06-23T02:53:51.769Z,7.40
2018-06-23T02:56:19.381Z,7.00
2018-06-23T03:01:14.084Z,8.60
2018-06-23T03:03:41.455Z,8.60
2018-06-23T03:06:08.756Z,8.60
2018-06-23T03:08:36.521Z,7.10
2018-06-23T03:11:03.812Z,8.20
2018-06-23T03:13:31.066Z,8.50
2018-06-23T03:18:25.600Z,8.50
2018-06-23T03:20:52.907Z,9.10
2018-06-23T03:23:20.175Z,8.40
2018-06-23T03:25:47.423Z,8.50
2018-06-23T03:28:14.700Z,6.80
2018-06-23T03:30:42.025Z,7.90
2018-06-23T03:33:09.377Z,8.50
2018-06-23T03:35:37.020Z,8.60
2018-06-23T03:38:04.511Z,10.00
2018-06-23T03:40:31.863Z,8.60
2018-06-23T03:42:59.106Z,8.70
2018-06-23T03:45:26.428Z,8.70
2018-06-23T03:47:53.671Z,8.70
2018-06-23T03:50:21.039Z,8.70
2018-06-23T03:52:48.395Z,8.30
2018-06-23T03:55:15.656Z,7.90
2018-06-23T03:57:43.127Z,7.80
2018-06-23T04:00:10.566Z,8.70
2018-06-23T04:02:38.028Z,7.80
2018-06-23T04:05:05.436Z,8.80
2018-06-23T04:07:33.282Z,8.70
2018-06-23T04:10:01.961Z,8.80
2018-06-23T04:12:29.631Z,8.70
2018-06-23T04:14:56.931Z,8.80
2018-06-23T04:17:25.063Z,9.60
2018-06-23T04:19:52.341Z,8.90
2018-06-23T04:24:47.091Z,9.10
2018-06-23T04:27:14.422Z,9.30
2018-06-23T04:29:42.304Z,8.70
2018-06-23T04:32:10.776Z,9.60
2018-06-23T04:34:38.029Z,9.80
2018-06-23T04:37:05.433Z,10.00
2018-06-23T04:39:32.682Z,8.80
2018-06-23T04:42:00.014Z,10.20
2018-06-23T04:44:27.284Z,10.40
2018-06-23T04:46:54.568Z,9.80
2018-06-23T04:49:21.823Z,9.60
2018-06-23T04:51:49.100Z,10.80
2018-06-23T04:54:16.633Z,11.00
2018-06-23T04:56:43.937Z,9.80
2018-06-23T04:59:11.210Z,10.60
2018-06-23T05:01:38.466Z,10.70
2018-06-23T05:04:05.751Z,11.40
2018-06-23T05:06:33.013Z,11.50
2018-06-23T05:09:00.274Z,11.60
2018-06-23T05:11:27.540Z,11.70
2018-06-23T05:13:54.835Z,11.40
2018-06-23T05:18:49.452Z,11.80
2018-06-23T05:21:16.740Z,11.80
2018-06-23T05:23:44.012Z,12.00
2018-06-23T05:28:38.875Z,12.20
2018-06-23T05:31:06.231Z,12.40
2018-06-23T05:36:26.502Z,12.70
2018-06-23T05:38:53.797Z,12.80
2018-06-23T05:41:21.253Z,12.80
2018-06-23T05:43:48.581Z,12.60
2018-06-23T05:46:15.899Z,12.80
2018-06-23T05:48:43.219Z,12.60
2018-06-23T05:51:10.572Z,12.50
2018-06-23T05:56:05.111Z,12.50
2018-06-23T05:58:32.402Z,12.50
2018-06-23T06:00:59.663Z,12.40
2018-06-23T06:03:27.237Z,12.40
2018-06-23T06:05:54.703Z,12.60
2018-06-23T06:08:21.995Z,12.80
2018-06-23T06:10:49.302Z,13.00
2018-06-23T06:13:16.547Z,13.10
2018-06-23T06:15:44.748Z,12.20
2018-06-23T06:18:12.343Z,13.10
2018-06-23T06:20:39.933Z,13.20
2018-06-23T06:23:07.198Z,13.30
2018-06-23T06:25:35.077Z,13.40
2018-06-23T06:28:02.408Z,13.60
2018-06-23T06:30:29.901Z,13.10
2018-06-23T06:32:57.218Z,13.60
2018-06-23T06:35:24.495Z,12.80
2018-06-23T06:37:51.825Z,13.60
2018-06-23T06:40:19.483Z,13.70
2018-06-23T06:42:46.755Z,13.90
2018-06-23T06:45:14.053Z,13.10
2018-06-23T06:47:41.353Z,13.30
2018-06-23T06:50:08.641Z,14.60
2018-06-23T06:52:35.956Z,14.60
2018-06-23T06:55:03.336Z,14.40
2018-06-23T06:57:30.918Z,14.50
2018-06-23T06:59:58.301Z,14.60
2018-06-23T07:02:25.573Z,14.80
2018-06-23T07:07:20.123Z,14.80
2018-06-23T07:09:47.492Z,15.00
2018-06-23T07:12:14.804Z,15.40
2018-06-23T07:14:42.081Z,15.90
2018-06-23T07:17:09.412Z,16.30
2018-06-23T07:19:37.185Z,16.30
2018-06-23T07:22:04.531Z,16.30
2018-06-23T07:24:32.589Z,16.10
2018-06-23T07:27:00.070Z,16.20
2018-06-23T07:29:27.320Z,16.10
2018-06-23T07:31:54.835Z,16.00
2018-06-23T07:34:22.586Z,15.60
2018-06-23T07:36:49.923Z,15.60
2018-06-23T07:39:17.223Z,15.80
2018-06-23T07:41:44.520Z,16.50
2018-06-23T07:44:11.772Z,16.90
2018-06-23T07:46:39.078Z,16.20
2018-06-23T07:49:06.316Z,17.10
2018-06-23T07:51:33.640Z,16.70
2018-06-23T07:54:00.899Z,16.40
2018-06-23T07:56:28.228Z,16.20
2018-06-23T07:58:55.559Z,15.90
2018-06-23T08:01:22.866Z,16.00
2018-06-23T08:06:17.452Z,16.50
2018-06-23T08:08:44.723Z,16.40
2018-06-23T08:11:12.635Z,16.70
2018-06-23T08:13:39.896Z,16.90
2018-06-23T08:16:07.911Z,17.00
2018-06-23T08:18:35.325Z,17.60
2018-06-23T08:23:33.488Z,18.00
2018-06-23T08:28:28.007Z,18.80
2018-06-23T08:30:55.301Z,18.00
2018-06-23T08:33:22.603Z,15.90
2018-06-23T08:35:49.883Z,17.30
2018-06-23T08:38:17.393Z,17.00
2018-06-23T08:43:12.059Z,18.00
2018-06-23T08:45:39.314Z,18.50
2018-06-23T08:48:06.585Z,17.20
2018-06-23T08:50:33.880Z,17.50
2018-06-23T08:53:01.228Z,17.70
2018-06-23T08:55:28.500Z,18.30
2018-06-23T08:57:55.810Z,18.50
2018-06-23T09:00:23.847Z,18.40
2018-06-23T09:02:52.184Z,18.70
2018-06-23T09:05:19.576Z,19.10
2018-06-23T09:07:47.140Z,19.50
2018-06-23T09:22:31.483Z,18.40
2018-06-23T09:24:59.817Z,18.00
2018-06-23T09:27:27.106Z,17.90
2018-06-23T09:29:54.447Z,18.10
2018-06-23T09:32:21.719Z,19.60
2018-06-23T09:34:48.995Z,21.40
2018-06-23T09:37:16.237Z,23.00
2018-06-23T09:39:43.577Z,24.40
2018-06-23T09:42:10.908Z,24.20
2018-06-23T09:47:05.791Z,20.90
2018-06-23T09:49:33.262Z,19.80
2018-06-23T09:52:00.515Z,19.20
2018-06-23T09:54:27.854Z,18.80
2018-06-23T09:56:55.269Z,19.10
2018-06-23T09:59:31.820Z,19.70
2018-06-23T10:02:00.187Z,21.30
2018-06-23T10:04:27.596Z,23.50
2018-06-23T10:06:54.908Z,23.40
2018-06-23T10:09:32.042Z,22.70
2018-06-23T10:11:59.471Z,21.30
2018-06-23T10:14:40.759Z,20.00
2018-06-23T10:17:08.047Z,20.80
2018-06-23T10:22:02.600Z,23.60
2018-06-23T10:24:29.938Z,24.90
2018-06-23T10:27:01.960Z,25.70
2018-06-23T10:29:30.408Z,26.30
2018-06-23T10:31:57.685Z,27.20
2018-06-23T10:34:25.206Z,28.70
2018-06-23T10:36:52.864Z,28.80
2018-06-23T10:39:20.444Z,27.50
2018-06-23T10:41:47.733Z,25.30
2018-06-23T10:44:15.182Z,24.90
2018-06-23T10:46:42.483Z,25.80
2018-06-23T10:49:09.727Z,25.70
2018-06-23T10:51:37.348Z,25.00
2018-06-23T10:56:32.024Z,22.50
2018-06-23T10:58:59.291Z,21.60
2018-06-23T11:01:26.615Z,22.60
2018-06-23T11:08:48.640Z,26.00
2018-06-23T11:11:15.882Z,26.40
2018-06-23T11:13:43.160Z,28.00
2018-06-23T11:16:10.451Z,28.30
2018-06-23T11:18:37.779Z,31.10
2018-06-23T11:23:32.787Z,29.40
2018-06-23T11:26:00.099Z,26.90
2018-06-23T11:28:27.400Z,25.10
2018-06-23T11:30:55.660Z,23.10
2018-06-23T11:33:23.035Z,23.70
2018-06-23T11:35:50.475Z,24.40
2018-06-23T11:38:17.799Z,23.00
2018-06-23T11:40:45.132Z,25.50
2018-06-23T11:43:12.392Z,27.30
2018-06-23T11:45:39.655Z,28.30
2018-06-23T11:48:06.924Z,30.10
2018-06-23T11:50:34.236Z,29.60
2018-06-23T11:53:01.554Z,28.70
2018-06-23T11:55:28.793Z,24.80
2018-06-23T11:57:56.146Z,24.30
2018-06-23T12:00:23.471Z,24.40
2018-06-23T12:02:50.778Z,24.60
2018-06-23T12:05:18.108Z,24.60
2018-06-23T12:07:45.397Z,24.60
2018-06-23T12:10:12.741Z,24.30
2018-06-23T12:12:40.060Z,24.30
2018-06-23T12:15:08.439Z,25.20
2018-06-23T12:17:35.742Z,24.80
2018-06-23T12:20:03.247Z,24.30
2018-06-23T12:22:30.634Z,24.20
2018-06-23T12:24:57.959Z,24.00
2018-06-23T12:27:25.279Z,22.70
2018-06-23T12:29:52.620Z,23.80
2018-06-23T12:32:19.910Z,24.10
2018-06-23T12:34:47.228Z,23.60
2018-06-23T12:37:15.816Z,23.30
2018-06-23T12:39:43.109Z,23.00
2018-06-23T12:42:11.384Z,23.00
2018-06-23T12:44:38.665Z,22.70
2018-06-23T12:47:05.988Z,22.80
2018-06-23T12:52:00.692Z,22.90
2018-06-23T12:54:27.952Z,23.00
2018-06-23T12:56:56.267Z,22.60
2018-06-23T12:59:23.542Z,22.20
2018-06-23T13:04:18.416Z,22.10
2018-06-23T13:06:45.725Z,20.90
2018-06-23T13:09:13.091Z,22.60
2018-06-23T13:11:40.472Z,22.00
2018-06-23T13:16:35.085Z,21.70
2018-06-23T13:19:02.327Z,20.60
2018-06-23T13:21:29.771Z,20.80
2018-06-23T13:23:57.063Z,20.70
2018-06-23T13:26:24.369Z,20.60
2018-06-23T13:28:51.672Z,21.20
2018-06-23T13:31:19.168Z,20.60
2018-06-23T13:33:49.744Z,20.50
2018-06-23T13:36:46.500Z,21.20
2018-06-23T13:39:13.802Z,21.10
2018-06-23T13:41:41.088Z,20.50
2018-06-23T13:44:08.384Z,19.80
2018-06-23T13:46:40.827Z,20.90
2018-06-23T13:49:08.670Z,20.80
2018-06-23T13:51:48.672Z,20.40
2018-06-23T13:54:16.728Z,20.20
2018-06-23T13:57:01.384Z,20.20
2018-06-23T14:01:57.022Z,20.40
2018-06-23T14:04:24.387Z,20.70
2018-06-23T14:07:09.902Z,19.80
2018-06-23T14:09:37.264Z,20.90
2018-06-23T14:12:05.332Z,20.00
2018-06-23T14:14:32.761Z,20.80
2018-06-23T14:17:09.784Z,20.10
2018-06-23T14:19:37.200Z,19.80
2018-06-23T14:24:39.615Z,19.10
2018-06-23T14:32:06.524Z,18.90
2018-06-23T14:34:33.591Z,20.10
2018-06-23T14:37:00.991Z,18.30
2018-06-23T14:39:28.355Z,18.70
2018-06-23T14:41:55.593Z,18.30
2018-06-23T14:44:23.686Z,18.20
2018-06-23T14:49:18.470Z,18.20
2018-06-23T14:51:45.775Z,18.40
2018-06-23T14:54:13.119Z,18.50
2018-06-23T14:56:40.793Z,18.60
2018-06-23T14:59:08.129Z,18.60
2018-06-23T15:01:35.411Z,18.40
2018-06-23T15:04:02.859Z,18.40
2018-06-23T15:06:30.346Z,17.50
2018-06-23T15:09:13.125Z,18.40
2018-06-23T15:11:52.023Z,18.60
2018-06-23T15:14:19.360Z,18.30
2018-06-23T15:16:46.663Z,19.00
2018-06-23T15:19:14.276Z,19.20
2018-06-23T15:21:41.677Z,19.30
2018-06-23T15:24:08.883Z,19.40
2018-06-23T15:26:36.244Z,19.40
2018-06-23T15:29:07.530Z,19.10
2018-06-23T15:31:34.890Z,18.30
2018-06-23T15:34:02.191Z,18.80
2018-06-23T15:36:29.549Z,20.10
2018-06-23T15:38:56.852Z,20.10
2018-06-23T15:41:25.321Z,20.20
2018-06-23T15:43:52.896Z,19.40
2018-06-23T15:46:20.566Z,19.80
2018-06-23T15:48:48.212Z,19.60
2018-06-23T15:53:43.007Z,18.90
2018-06-23T15:56:10.742Z,17.50
2018-06-23T15:58:38.037Z,18.60
2018-06-23T16:01:05.340Z,18.00
2018-06-23T16:03:32.612Z,17.80
2018-06-23T16:08:51.069Z,17.80
2018-06-23T16:11:18.263Z,17.70
2018-06-23T16:13:45.592Z,17.80
2018-06-23T16:16:12.852Z,18.00
2018-06-23T16:18:40.638Z,18.10
2018-06-23T16:21:07.891Z,18.40
2018-06-23T16:23:35.210Z,18.30
2018-06-23T16:26:02.489Z,18.20
2018-06-23T16:28:29.892Z,18.00
2018-06-23T16:30:57.164Z,17.90
2018-06-23T16:33:24.444Z,17.70
2018-06-23T16:35:51.700Z,17.70
2018-06-23T16:38:19.015Z,17.60
2018-06-23T16:40:46.287Z,15.70
2018-06-23T16:45:41.426Z,17.30
2018-06-23T16:48:09.170Z,17.20
2018-06-23T16:50:39.767Z,17.30
2018-06-23T16:53:07.032Z,17.40
2018-06-23T16:55:34.294Z,17.50
2018-06-23T17:00:31.083Z,17.60
2018-06-23T17:02:58.343Z,17.70
2018-06-23T17:05:25.643Z,17.60
2018-06-23T17:07:52.992Z,17.50
2018-06-23T17:12:47.592Z,17.40
2018-06-23T17:15:17.825Z,17.50
2018-06-23T17:17:45.068Z,17.50
2018-06-23T17:20:12.400Z,15.50
2018-06-23T17:22:39.653Z,17.50
2018-06-23T17:25:07.437Z,17.10
2018-06-23T17:27:36.522Z,17.20
2018-06-23T17:30:04.353Z,17.30
2018-06-23T17:32:31.591Z,16.90
2018-06-23T17:34:58.855Z,17.20
2018-06-23T17:37:26.124Z,17.10
2018-06-23T17:39:53.464Z,17.00
2018-06-23T17:42:20.744Z,16.70
2018-06-23T17:44:48.003Z,16.90
2018-06-23T17:47:15.289Z,16.80
2018-06-23T17:49:42.567Z,16.70
2018-06-23T17:52:09.871Z,16.40
2018-06-23T17:54:38.137Z,16.10
2018-06-23T17:57:05.466Z,16.50
2018-06-23T17:59:32.768Z,15.80
2018-06-23T18:02:00.090Z,16.40
2018-06-23T18:09:23.640Z,16.30
2018-06-23T18:11:50.972Z,16.30
2018-06-23T18:14:18.291Z,16.30
2018-06-23T18:16:46.197Z,15.50
2018-06-23T18:19:13.480Z,16.30
2018-06-23T18:21:40.739Z,15.80
2018-06-23T18:24:08.074Z,16.10
2018-06-23T18:26:35.359Z,16.10
2018-06-23T18:29:02.663Z,16.10
2018-06-23T18:33:57.219Z,16.10
2018-06-23T18:36:24.735Z,16.10
2018-06-23T18:38:52.585Z,16.10
2018-06-23T18:41:19.820Z,15.90
2018-06-23T18:43:47.119Z,16.00
2018-06-23T18:46:14.371Z,15.90
2018-06-23T18:48:41.731Z,16.10
2018-06-23T18:51:09.014Z,15.80
2018-06-23T18:53:36.308Z,15.80
2018-06-23T18:56:04.195Z,15.70
2018-06-23T18:58:31.503Z,15.60
2018-06-23T19:00:58.759Z,15.60
2018-06-23T19:03:26.048Z,15.60
2018-06-23T19:05:53.400Z,15.60
2018-06-23T19:08:20.823Z,17.10
2018-06-23T19:10:48.111Z,15.40
2018-06-23T19:13:15.397Z,14.20
2018-06-23T19:15:42.648Z,15.40
2018-06-23T19:18:09.920Z,15.40
2018-06-23T19:20:37.171Z,15.40
2018-06-23T19:25:31.748Z,15.40
2018-06-23T19:27:59.047Z,15.30
2018-06-23T19:30:26.454Z,15.30
2018-06-23T19:32:53.719Z,14.40
2018-06-23T19:35:22.108Z,15.30
2018-06-23T19:37:49.741Z,14.00
2018-06-23T19:40:17.072Z,15.20
2018-06-23T19:42:45.176Z,15.20
2018-06-23T19:45:12.457Z,15.20
2018-06-23T19:47:39.723Z,15.20
2018-06-23T19:50:06.999Z,15.30
2018-06-23T19:52:35.158Z,14.20
2018-06-23T19:55:02.707Z,15.10
2018-06-23T19:57:30.017Z,14.30
2018-06-23T19:59:57.269Z,15.10
2018-06-23T20:02:24.588Z,15.10
2018-06-23T20:04:51.861Z,14.40
2018-06-23T20:07:19.368Z,13.60
2018-06-23T20:09:46.667Z,15.00
2018-06-23T20:12:13.927Z,15.00
2018-06-23T20:14:43.660Z,14.90
2018-06-23T20:17:11.496Z,14.90
2018-06-23T20:19:38.806Z,13.40
2018-06-23T20:22:06.126Z,14.80
2018-06-23T20:24:33.376Z,14.80
2018-06-23T20:27:00.658Z,14.80
2018-06-23T20:29:27.949Z,14.80
2018-06-23T20:31:55.225Z,14.70
2018-06-23T20:34:23.144Z,14.70
2018-06-23T20:36:50.500Z,13.50
2018-06-23T20:39:34.562Z,14.60
2018-06-23T20:42:01.844Z,14.60
2018-06-23T20:44:29.119Z,13.20
2018-06-23T20:46:56.563Z,14.50
2018-06-23T20:49:23.824Z,14.40
2018-06-23T20:51:51.157Z,14.40
2018-06-23T20:54:18.420Z,13.40
2018-06-23T20:56:45.731Z,14.30
2018-06-23T20:59:13.064Z,14.50
2018-06-23T21:01:40.418Z,14.30
2018-06-23T21:04:07.902Z,14.30
2018-06-23T21:06:35.215Z,14.20
2018-06-23T21:09:02.535Z,14.20
2018-06-23T21:11:29.813Z,14.20
2018-06-23T21:18:51.724Z,14.20
2018-06-23T21:21:20.101Z,14.20
2018-06-23T21:26:14.953Z,14.20
2018-06-23T21:28:42.317Z,14.20
2018-06-23T21:31:09.608Z,12.60
2018-06-23T21:33:37.782Z,14.20
2018-06-23T21:36:05.139Z,14.20
2018-06-23T21:38:33.689Z,14.20
2018-06-23T21:41:00.976Z,14.10
2018-06-23T21:43:28.282Z,14.20
2018-06-23T21:45:55.536Z,14.10
2018-06-23T21:48:22.956Z,13.60
2018-06-23T21:50:50.388Z,13.80
2018-06-23T21:53:17.713Z,14.00
2018-06-23T21:55:44.981Z,14.00
2018-06-23T21:58:12.281Z,13.90
2018-06-23T22:00:42.954Z,13.80
2018-06-23T22:03:11.431Z,13.70
2018-06-23T22:05:38.937Z,13.60
2018-06-23T22:08:06.843Z,13.50
2018-06-23T22:13:01.515Z,13.30
2018-06-23T22:15:28.820Z,12.00
2018-06-23T22:17:56.644Z,13.10
2018-06-23T22:20:24.017Z,13.10
2018-06-23T22:22:52.044Z,12.70
2018-06-23T22:25:19.696Z,13.00
2018-06-23T22:27:47.088Z,12.90
2018-06-23T22:33:07.008Z,12.90
2018-06-23T22:35:34.307Z,12.90
2018-06-23T22:38:02.520Z,12.90
2018-06-23T22:40:29.905Z,12.60
2018-06-23T22:42:57.165Z,12.80
2018-06-23T22:45:24.436Z,12.80
2018-06-23T22:47:51.690Z,12.70
2018-06-23T22:50:18.995Z,12.70
2018-06-23T22:52:48.697Z,12.70
2018-06-23T22:55:21.954Z,12.70
2018-06-23T23:00:16.556Z,12.70
2018-06-23T23:02:43.825Z,10.90
2018-06-23T23:05:11.204Z,12.90
2018-06-23T23:07:39.477Z,12.70
2018-06-23T23:10:07.424Z,12.60
2018-06-23T23:12:34.752Z,12.60
2018-06-23T23:17:29.491Z,12.50
2018-06-23T23:19:56.744Z,12.50
2018-06-23T23:22:24.739Z,11.30
2018-06-23T23:24:52.330Z,12.30
2018-06-23T23:27:19.580Z,12.00
2018-06-23T23:29:46.848Z,12.40
2018-06-23T23:32:14.537Z,12.40
2018-06-23T23:34:41.835Z,11.40
2018-06-23T23:37:09.169Z,12.40
2018-06-23T23:39:36.485Z,12.40
2018-06-23T23:42:03.758Z,10.70
2018-06-23T23:44:31.004Z,12.40
2018-06-23T23:46:58.308Z,14.20
2018-06-23T23:49:25.588Z,12.30
2018-06-23T23:54:20.224Z,12.40
2018-06-23T23:56:47.639Z,12.30
2018-06-23T23:59:14.911Z,12.40
